createdAt,value
2023-02-09T00:01:09.554Z,76.70
2023-02-09T00:03:59.613Z,77.07
2023-02-09T00:06:48.953Z,77.30
2023-02-09T00:09:30.775Z,76.63
2023-02-09T00:12:38.495Z,76.42
2023-02-09T00:15:27.520Z,76.56
2023-02-09T00:18:09.884Z,76.15
2023-02-09T00:20:59.610Z,76.18
2023-02-09T00:23:56.437Z,76.52
2023-02-09T00:26:46.516Z,76.05
2023-02-09T00:29:28.839Z,76.31
2023-02-09T00:32:17.562Z,75.96
2023-02-09T00:34:59.818Z,76.20
2023-02-09T00:37:49.529Z,76.74
2023-02-09T00:40:38.558Z,76.15
2023-02-09T00:43:26.866Z,76.15
2023-02-09T00:46:09.657Z,76.60
2023-02-09T00:48:51.733Z,76.71
2023-02-09T00:51:40.546Z,76.56
2023-02-09T00:54:29.889Z,76.65
2023-02-09T00:57:13.593Z,76.68
2023-02-09T01:00:01.848Z,76.64
2023-02-09T01:02:45.505Z,76.87
2023-02-09T01:05:27.831Z,76.69
2023-02-09T01:08:16.536Z,76.66
2023-02-09T01:11:05.530Z,77.17
2023-02-09T01:13:48.991Z,77.53
2023-02-09T01:16:39.567Z,77.02
2023-02-09T01:19:21.980Z,77.10
2023-02-09T01:22:11.487Z,77.51
2023-02-09T01:24:59.760Z,78.18
2023-02-09T01:27:42.523Z,77.66
2023-02-09T01:30:30.770Z,77.25
2023-02-09T01:33:13.489Z,76.96
2023-02-09T01:36:06.464Z,77.97
2023-02-09T01:38:55.530Z,77.92
2023-02-09T01:41:38.446Z,78.04
2023-02-09T01:44:27.567Z,78.45
2023-02-09T01:47:19.215Z,78.17
2023-02-09T01:50:08.505Z,77.92
2023-02-09T01:52:52.456Z,77.94
2023-02-09T01:55:47.534Z,78.20
2023-02-09T01:58:36.565Z,78.02
2023-02-09T02:01:19.818Z,78.06
2023-02-09T02:04:08.541Z,78.03
2023-02-09T02:06:50.809Z,77.42
2023-02-09T02:09:39.593Z,76.88
2023-02-09T02:12:26.599Z,77.42
2023-02-09T02:15:16.643Z,77.52
2023-02-09T02:18:32.990Z,77.31
2023-02-09T02:21:48.577Z,77.17
2023-02-09T02:24:58.452Z,77.20
2023-02-09T02:28:14.556Z,77.56
2023-02-09T02:31:30.589Z,77.30
2023-02-09T02:34:43.081Z,77.24
2023-02-09T02:37:37.536Z,76.74
2023-02-09T02:40:22.867Z,76.68
2023-02-09T02:43:33.489Z,76.73
2023-02-09T02:46:37.066Z,76.70
2023-02-09T02:49:34.524Z,76.09
2023-02-09T02:52:23.908Z,74.99
2023-02-09T02:55:14.502Z,75.13
2023-02-09T02:58:04.236Z,75.18
2023-02-09T03:01:01.545Z,75.09
2023-02-09T03:03:52.854Z,74.32
2023-02-09T03:06:35.571Z,73.60
2023-02-09T03:09:25.809Z,73.11
2023-02-09T03:12:26.522Z,72.11
2023-02-09T03:15:31.843Z,72.99
2023-02-09T03:18:30.979Z,71.75
2023-02-09T03:21:15.526Z,72.99
2023-02-09T03:24:14.568Z,72.41
2023-02-09T03:28:01.497Z,71.53
2023-02-09T03:30:52.605Z,71.17
2023-02-09T03:33:44.419Z,71.33
2023-02-09T03:36:39.474Z,72.02
2023-02-09T03:39:21.804Z,71.66
2023-02-09T03:42:10.600Z,70.94
2023-02-09T03:44:52.871Z,70.19
2023-02-09T03:47:41.619Z,70.92
2023-02-09T03:50:24.885Z,70.99
2023-02-09T03:53:16.497Z,70.44
2023-02-09T03:55:58.741Z,68.94
2023-02-09T03:58:47.635Z,67.72
2023-02-09T04:01:29.792Z,66.46
2023-02-09T04:04:18.464Z,65.83
2023-02-09T04:07:01.795Z,65.54
2023-02-09T04:09:50.550Z,64.50
2023-02-09T04:12:32.854Z,63.01
2023-02-09T04:15:21.448Z,63.66
2023-02-09T04:18:03.720Z,61.88
2023-02-09T04:20:52.806Z,61.91
2023-02-09T04:23:34.777Z,61.24
2023-02-09T04:26:23.538Z,60.63
2023-02-09T04:29:05.894Z,60.39
2023-02-09T04:31:54.517Z,60.44
2023-02-09T04:34:36.718Z,60.14
2023-02-09T04:37:25.504Z,60.15
2023-02-09T04:40:14.447Z,59.25
2023-02-09T04:42:56.619Z,60.09
2023-02-09T04:45:45.535Z,60.15
2023-02-09T04:48:35.850Z,59.87
2023-02-09T04:51:18.534Z,59.09
2023-02-09T04:54:00.926Z,59.12
2023-02-09T04:56:49.503Z,55.24
2023-02-09T04:59:37.447Z,54.95
2023-02-09T05:02:27.615Z,54.40
2023-02-09T05:05:16.805Z,53.85
2023-02-09T05:07:59.559Z,52.90
2023-02-09T05:10:47.968Z,53.13
2023-02-09T05:13:31.486Z,52.94
2023-02-09T05:16:27.567Z,53.49
2023-02-09T05:19:10.230Z,52.51
2023-02-09T05:22:00.902Z,53.98
2023-02-09T05:24:48.749Z,55.14
2023-02-09T05:27:30.506Z,53.78
2023-02-09T05:30:19.490Z,54.21
2023-02-09T05:33:01.834Z,52.66
2023-02-09T05:35:50.463Z,51.95
2023-02-09T05:38:32.754Z,52.63
2023-02-09T05:41:45.495Z,51.61
2023-02-09T05:44:27.821Z,51.11
2023-02-09T05:47:16.560Z,50.45
2023-02-09T05:49:59.793Z,51.85
2023-02-09T05:52:48.510Z,50.42
2023-02-09T05:55:30.932Z,50.71
2023-02-09T05:58:19.492Z,50.43
2023-02-09T06:01:01.998Z,49.46
2023-02-09T06:03:50.483Z,50.06
2023-02-09T06:06:32.897Z,50.81
2023-02-09T06:09:21.539Z,50.57
2023-02-09T06:12:03.906Z,50.18
2023-02-09T06:14:52.493Z,49.02
2023-02-09T06:17:34.779Z,48.61
2023-02-09T06:20:23.429Z,48.70
2023-02-09T06:23:08.312Z,49.11
2023-02-09T06:26:00.841Z,48.25
2023-02-09T06:28:43.778Z,47.71
2023-02-09T06:31:32.581Z,47.96
2023-02-09T06:34:14.776Z,46.76
2023-02-09T06:37:03.486Z,47.74
2023-02-09T06:39:45.900Z,47.69
2023-02-09T06:42:51.431Z,46.20
2023-02-09T06:45:33.861Z,44.41
2023-02-09T06:48:22.454Z,43.74
2023-02-09T06:51:04.742Z,43.67
2023-02-09T06:53:53.538Z,44.43
2023-02-09T06:56:36.837Z,44.25
2023-02-09T06:59:25.514Z,44.88
2023-02-09T07:02:14.449Z,44.84
2023-02-09T07:05:02.788Z,46.26
2023-02-09T07:07:45.439Z,46.79
2023-02-09T07:10:34.701Z,46.04
2023-02-09T07:13:17.528Z,45.20
2023-02-09T07:16:08.856Z,45.45
2023-02-09T07:18:51.504Z,45.58
2023-02-09T07:21:39.822Z,45.52
2023-02-09T07:24:28.539Z,45.66
2023-02-09T07:27:12.762Z,45.43
2023-02-09T07:30:01.814Z,45.66
2023-02-09T07:32:48.776Z,45.06
2023-02-09T07:35:37.542Z,44.99
2023-02-09T07:38:20.756Z,44.09
2023-02-09T07:41:11.470Z,44.14
2023-02-09T07:43:54.786Z,43.13
2023-02-09T07:46:43.575Z,44.51
2023-02-09T07:49:25.773Z,45.39
2023-02-09T07:52:14.418Z,44.94
2023-02-09T07:54:57.722Z,45.86
2023-02-09T07:57:46.488Z,45.73
2023-02-09T08:00:28.705Z,45.80
2023-02-09T08:03:17.488Z,45.87
2023-02-09T08:06:08.751Z,44.97
2023-02-09T08:08:59.419Z,46.28
2023-02-09T08:11:46.817Z,44.52
2023-02-09T08:14:44.478Z,42.98
2023-02-09T08:17:37.427Z,42.57
2023-02-09T08:20:22.984Z,40.79
2023-02-09T08:23:20.498Z,41.10
2023-02-09T08:26:14.790Z,39.85
2023-02-09T08:28:57.547Z,40.01
2023-02-09T08:31:46.267Z,39.08
2023-02-09T08:34:29.427Z,39.60
2023-02-09T08:37:17.856Z,39.24
2023-02-09T08:39:59.580Z,39.37
2023-02-09T08:42:47.772Z,38.17
2023-02-09T08:45:30.604Z,40.09
2023-02-09T08:48:18.729Z,39.51
2023-02-09T08:51:00.464Z,38.70
2023-02-09T08:53:52.237Z,39.18
2023-02-09T08:56:34.776Z,40.33
2023-02-09T08:59:23.466Z,42.21
2023-02-09T09:02:05.762Z,43.48
2023-02-09T09:04:54.408Z,44.13
2023-02-09T09:07:43.443Z,44.47
2023-02-09T09:10:31.756Z,45.48
2023-02-09T09:13:14.404Z,46.40
2023-02-09T09:16:05.219Z,48.38
2023-02-09T09:18:47.822Z,50.77
2023-02-09T09:21:36.536Z,51.12
2023-02-09T09:24:18.722Z,51.24
2023-02-09T09:27:07.475Z,50.86
2023-02-09T09:29:56.473Z,51.81
2023-02-09T09:32:44.785Z,51.59
2023-02-09T09:35:26.527Z,52.01
2023-02-09T09:38:14.766Z,52.23
2023-02-09T09:40:57.610Z,51.83
2023-02-09T09:44:02.319Z,53.02
2023-02-09T09:46:59.424Z,53.75
2023-02-09T09:49:45.877Z,55.21
2023-02-09T09:52:48.506Z,58.10
2023-02-09T09:55:37.741Z,59.59
2023-02-09T09:58:28.403Z,60.67
2023-02-09T10:01:10.770Z,60.34
2023-02-09T10:03:59.420Z,61.03
2023-02-09T10:06:48.468Z,61.16
2023-02-09T10:09:53.743Z,61.08
2023-02-09T10:12:57.441Z,60.61
2023-02-09T10:15:46.994Z,60.90
2023-02-09T10:18:33.530Z,61.06
2023-02-09T10:21:24.742Z,61.36
2023-02-09T10:24:37.392Z,61.72
2023-02-09T10:27:29.423Z,61.41
2023-02-09T10:30:43.499Z,61.71
2023-02-09T10:33:32.849Z,61.84
2023-02-09T10:36:30.975Z,61.14
2023-02-09T10:39:33.857Z,61.35
2023-02-09T10:42:32.514Z,61.55
2023-02-09T10:45:27.179Z,61.63
2023-02-09T10:48:31.451Z,61.88
2023-02-09T10:51:34.618Z,61.77
2023-02-09T10:54:29.512Z,61.75
2023-02-09T10:57:45.728Z,63.07
2023-02-09T11:00:27.450Z,63.04
2023-02-09T11:03:31.290Z,62.94
2023-02-09T11:06:27.472Z,63.32
2023-02-09T11:09:24.363Z,64.31
2023-02-09T11:12:14.443Z,64.58
2023-02-09T11:15:03.884Z,65.69
2023-02-09T11:18:03.451Z,66.35
2023-02-09T11:21:09.541Z,66.42
2023-02-09T11:24:41.735Z,65.81
2023-02-09T11:27:33.472Z,65.20
2023-02-09T11:30:36.758Z,65.03
2023-02-09T11:33:30.451Z,65.11
2023-02-09T11:37:00.396Z,65.20
2023-02-09T11:40:08.888Z,65.30
2023-02-09T11:43:07.465Z,65.50
2023-02-09T11:45:52.564Z,64.63
2023-02-09T11:48:46.498Z,65.34
2023-02-09T11:51:35.841Z,65.50
2023-02-09T11:54:41.494Z,66.13
2023-02-09T11:57:55.707Z,66.28
2023-02-09T12:01:14.656Z,66.08
2023-02-09T12:04:24.339Z,66.15
2023-02-09T12:07:36.496Z,65.72
2023-02-09T12:10:44.097Z,64.98
2023-02-09T12:14:01.447Z,63.97
2023-02-09T12:16:52.475Z,62.82
2023-02-09T12:19:56.435Z,62.29
2023-02-09T12:22:49.899Z,62.00
2023-02-09T12:25:51.269Z,61.82
2023-02-09T12:28:39.777Z,61.85
2023-02-09T12:32:06.621Z,61.88
2023-02-09T12:34:57.754Z,62.28
2023-02-09T12:37:40.471Z,61.98
2023-02-09T12:40:29.731Z,61.77
2023-02-09T12:43:32.458Z,62.74
2023-02-09T12:46:39.660Z,62.38
2023-02-09T12:49:22.488Z,62.90
2023-02-09T12:52:10.786Z,62.53
2023-02-09T12:55:04.471Z,62.59
2023-02-09T12:57:51.961Z,62.28
2023-02-09T13:00:46.475Z,62.31
2023-02-09T13:03:37.836Z,62.13
2023-02-09T13:06:47.448Z,62.37
2023-02-09T13:09:44.900Z,61.92
2023-02-09T13:12:36.560Z,61.83
2023-02-09T13:15:27.916Z,61.71
2023-02-09T13:18:23.486Z,61.59
2023-02-09T13:21:29.953Z,61.98
2023-02-09T13:24:31.409Z,61.72
2023-02-09T13:27:28.933Z,61.39
2023-02-09T13:30:11.604Z,61.60
2023-02-09T13:33:14.905Z,61.89
2023-02-09T13:36:24.650Z,61.26
2023-02-09T13:39:26.988Z,61.95
2023-02-09T13:42:09.605Z,61.44
2023-02-09T13:44:59.797Z,60.63
2023-02-09T13:47:42.494Z,60.85
2023-02-09T13:50:34.485Z,60.80
2023-02-09T13:53:18.572Z,61.97
2023-02-09T13:56:08.974Z,61.57
2023-02-09T13:58:51.490Z,61.88
2023-02-09T14:01:47.020Z,62.03
2023-02-09T14:04:33.380Z,62.29
2023-02-09T14:07:23.057Z,62.35
2023-02-09T14:10:24.451Z,62.90
2023-02-09T14:13:23.881Z,63.67
2023-02-09T14:16:17.569Z,63.41
2023-02-09T14:19:07.768Z,63.29
2023-02-09T14:21:50.443Z,64.25
2023-02-09T14:24:58.497Z,64.88
2023-02-09T14:27:48.945Z,65.39
2023-02-09T14:30:34.633Z,66.18
2023-02-09T14:33:32.414Z,66.21
2023-02-09T14:36:30.422Z,66.10
2023-02-09T14:39:28.442Z,66.98
2023-02-09T14:42:19.104Z,66.87
2023-02-09T14:45:33.390Z,68.08
2023-02-09T14:48:24.956Z,67.57
2023-02-09T14:51:24.537Z,67.99
2023-02-09T14:54:16.496Z,68.31
2023-02-09T14:57:06.862Z,68.08
2023-02-09T14:59:49.359Z,68.31
2023-02-09T15:02:39.740Z,68.06
2023-02-09T15:05:22.495Z,67.77
2023-02-09T15:08:12.753Z,68.99
2023-02-09T15:11:01.604Z,69.23
2023-02-09T15:13:51.141Z,69.78
2023-02-09T15:16:34.474Z,69.90
2023-02-09T15:19:20.962Z,68.99
2023-02-09T15:22:09.509Z,69.11
2023-02-09T15:25:06.334Z,69.53
2023-02-09T15:28:01.445Z,70.02
2023-02-09T15:30:44.063Z,70.75
2023-02-09T15:33:34.467Z,70.48
2023-02-09T15:36:25.838Z,70.23
2023-02-09T15:39:23.507Z,70.90
2023-02-09T15:42:24.239Z,71.09
2023-02-09T15:45:49.439Z,71.84
2023-02-09T15:48:33.409Z,71.93
2023-02-09T15:51:23.477Z,71.70
2023-02-09T15:54:07.705Z,72.21
2023-02-09T15:56:56.749Z,72.02
2023-02-09T15:59:38.744Z,71.90
2023-02-09T16:02:27.433Z,72.38
2023-02-09T16:05:09.768Z,72.51
2023-02-09T16:08:00.502Z,72.69
2023-02-09T16:10:42.720Z,73.57
2023-02-09T16:13:31.427Z,73.07
2023-02-09T16:16:17.324Z,73.42
2023-02-09T16:19:06.418Z,73.74
2023-02-09T16:21:51.697Z,73.64
2023-02-09T16:24:46.417Z,73.77
2023-02-09T16:27:33.777Z,74.12
2023-02-09T16:30:31.118Z,74.64
2023-02-09T16:33:13.869Z,74.23
2023-02-09T16:36:10.457Z,74.45
2023-02-09T16:38:52.851Z,74.69
2023-02-09T16:42:00.470Z,74.55
2023-02-09T16:44:42.912Z,74.76
2023-02-09T16:47:35.429Z,75.18
2023-02-09T16:50:48.209Z,75.36
2023-02-09T16:53:43.453Z,74.93
2023-02-09T16:56:28.643Z,74.91
2023-02-09T16:59:21.454Z,74.51
2023-02-09T17:02:03.933Z,74.53
2023-02-09T17:04:54.420Z,74.46
2023-02-09T17:07:53.980Z,74.15
2023-02-09T17:10:45.563Z,73.99
2023-02-09T17:13:29.906Z,73.36
2023-02-09T17:16:43.490Z,73.04
2023-02-09T17:19:29.297Z,72.21
2023-02-09T17:22:22.374Z,71.50
2023-02-09T17:25:18.275Z,71.32
2023-02-09T17:28:08.483Z,71.15
2023-02-09T17:30:51.767Z,71.24
2023-02-09T17:33:43.526Z,70.68
2023-02-09T17:36:28.940Z,70.67
2023-02-09T17:39:20.416Z,70.59
2023-02-09T17:42:02.888Z,70.42
2023-02-09T17:44:51.504Z,70.48
2023-02-09T17:47:33.891Z,70.66
2023-02-09T17:50:22.534Z,70.16
2023-02-09T17:53:05.899Z,69.68
2023-02-09T17:55:55.472Z,70.07
2023-02-09T17:58:37.900Z,69.78
2023-02-09T18:01:37.555Z,70.03
2023-02-09T18:04:29.858Z,69.77
2023-02-09T18:07:18.549Z,69.71
2023-02-09T18:10:00.864Z,69.86
2023-02-09T18:12:50.401Z,70.13
2023-02-09T18:15:41.570Z,69.95
2023-02-09T18:18:30.422Z,69.41
2023-02-09T18:21:12.940Z,69.39
2023-02-09T18:24:01.425Z,69.28
2023-02-09T18:26:52.150Z,69.21
2023-02-09T18:29:37.793Z,69.43
2023-02-09T18:32:27.421Z,69.59
2023-02-09T18:35:10.514Z,69.67
2023-02-09T18:37:53.454Z,69.21
2023-02-09T18:40:43.398Z,69.09
2023-02-09T18:43:32.774Z,69.19
2023-02-09T18:46:15.540Z,69.58
2023-02-09T18:49:04.896Z,69.50
2023-02-09T18:51:46.474Z,69.35
2023-02-09T18:54:35.922Z,69.45
2023-02-09T18:57:18.406Z,69.49
2023-02-09T19:00:11.892Z,69.26
2023-02-09T19:02:54.453Z,69.47
2023-02-09T19:05:43.811Z,69.98
2023-02-09T19:08:26.416Z,70.05
2023-02-09T19:11:15.859Z,70.21
2023-02-09T19:14:16.348Z,70.24
2023-02-09T19:17:05.753Z,70.05
2023-02-09T19:19:48.399Z,70.28
2023-02-09T19:22:37.860Z,70.37
2023-02-09T19:25:34.415Z,70.52
2023-02-09T19:28:23.778Z,70.66
2023-02-09T19:31:06.405Z,70.65
2023-02-09T19:33:54.751Z,71.01
2023-02-09T19:36:37.394Z,70.92
2023-02-09T19:39:26.965Z,71.21
2023-02-09T19:42:10.688Z,70.89
2023-02-09T19:45:01.746Z,71.29
2023-02-09T19:47:46.398Z,71.23
2023-02-09T19:50:37.615Z,71.63
2023-02-09T19:53:21.415Z,71.27
2023-02-09T19:56:03.682Z,71.54
2023-02-09T19:58:52.454Z,71.77
2023-02-09T20:01:41.695Z,71.83
2023-02-09T20:04:24.392Z,72.19
2023-02-09T20:07:06.858Z,71.97
2023-02-09T20:09:56.388Z,71.72
2023-02-09T20:15:32.897Z,72.04
2023-02-09T20:18:22.392Z,71.56
2023-02-09T20:21:04.828Z,71.65
2023-02-09T20:23:53.406Z,72.11
2023-02-09T20:26:41.804Z,72.19
2023-02-09T20:29:24.366Z,71.88
2023-02-09T20:32:13.825Z,72.32
2023-02-09T20:34:55.381Z,71.59
2023-02-09T20:37:37.642Z,71.89
2023-02-09T20:40:29.327Z,72.06
2023-02-09T20:43:32.242Z,72.19
2023-02-09T20:46:41.446Z,72.34
2023-02-09T20:49:33.692Z,72.37
2023-02-09T20:52:15.792Z,72.58
2023-02-09T20:55:04.361Z,72.25
2023-02-09T20:57:46.658Z,72.29
2023-02-09T21:00:35.467Z,72.60
2023-02-09T21:03:20.259Z,72.42
2023-02-09T21:06:09.392Z,72.02
2023-02-09T21:08:53.007Z,72.45
2023-02-09T21:11:44.379Z,72.41
2023-02-09T21:14:41.856Z,72.79
2023-02-09T21:17:24.772Z,72.45
2023-02-09T21:20:14.434Z,72.69
2023-02-09T21:23:03.741Z,72.32
2023-02-09T21:25:59.401Z,72.26
2023-02-09T21:28:53.048Z,72.52
2023-02-09T21:31:36.571Z,72.47
2023-02-09T21:34:18.770Z,72.48
2023-02-09T21:37:07.425Z,72.36
2023-02-09T21:39:56.274Z,72.63
2023-02-09T21:42:45.463Z,72.44
2023-02-09T21:45:33.687Z,72.40
2023-02-09T21:48:16.414Z,72.45
2023-02-09T21:51:05.216Z,71.84
2023-02-09T21:53:54.313Z,72.21
2023-02-09T21:56:43.382Z,72.02
2023-02-09T21:59:25.728Z,72.16
2023-02-09T22:02:15.321Z,72.14
2023-02-09T22:05:04.399Z,72.25
2023-02-09T22:07:54.186Z,72.05
2023-02-09T22:10:36.385Z,72.24
2023-02-09T22:13:25.632Z,72.54
2023-02-09T22:16:08.347Z,72.55
2023-02-09T22:18:57.671Z,71.97
2023-02-09T22:21:40.397Z,72.30
2023-02-09T22:24:31.066Z,72.90
2023-02-09T22:27:20.390Z,72.74
2023-02-09T22:30:02.656Z,72.52
2023-02-09T22:32:51.371Z,72.21
2023-02-09T22:35:33.612Z,72.62
2023-02-09T22:38:22.461Z,72.59
2023-02-09T22:41:04.740Z,72.72
2023-02-09T22:43:53.389Z,72.24
2023-02-09T22:46:46.365Z,73.01
2023-02-09T22:49:28.587Z,73.04
2023-02-09T22:52:17.383Z,72.56
2023-02-09T22:55:06.663Z,72.59
2023-02-09T22:57:49.413Z,72.96
2023-02-09T23:00:37.658Z,73.11
2023-02-09T23:03:20.364Z,73.13
2023-02-09T23:06:14.628Z,73.23
2023-02-09T23:09:00.774Z,73.28
2023-02-09T23:11:49.354Z,73.24
2023-02-09T23:14:31.639Z,73.16
2023-02-09T23:17:20.420Z,72.94
2023-02-09T23:20:02.610Z,72.67
2023-02-09T23:22:51.382Z,73.55
2023-02-09T23:25:47.403Z,73.35
2023-02-09T23:28:36.469Z,73.43
2023-02-09T23:31:28.403Z,73.73
2023-02-09T23:34:17.927Z,73.54
2023-02-09T23:37:13.775Z,74.13
2023-02-09T23:40:05.708Z,73.81
2023-02-09T23:42:54.476Z,73.66
2023-02-09T23:45:42.667Z,74.12
2023-02-09T23:48:25.414Z,73.77
2023-02-09T23:51:16.874Z,73.64
2023-02-09T23:53:59.388Z,73.25
2023-02-09T23:56:48.652Z,73.51
2023-02-09T23:59:31.383Z,72.93
